Time;durP1;ratioP1;P1;durP2;ratioP2;P2;SDS_P1;SDS_P2;PMS_P1;PMS_P2;Temp;Humidity;BMP_temperature;BMP_pressure;BME280_temperature;BME280_humidity;BME280_pressure;Samples;Min_cycle;Max_cycle;Signal;HPM_P1;HPM_P2
2021/12/15 00:01:56;;;;;;;35.17;16.20;;;5.80;99.90;;;;;;5018394;28;20053;-69
2021/12/15 00:04:23;;;;;;;36.28;17.20;;;5.90;99.90;;;;;;5027662;28;20104;-69
2021/12/15 00:06:50;;;;;;;32.58;15.77;;;5.90;99.90;;;;;;5023629;28;20152;-69
2021/12/15 00:09:18;;;;;;;28.77;14.50;;;5.90;99.90;;;;;;5023760;28;20075;-69
2021/12/15 00:11:46;;;;;;;32.67;16.20;;;5.90;99.90;;;;;;5023490;28;20041;-69
2021/12/15 00:14:16;;;;;;;36.00;15.80;;;5.90;99.90;;;;;;5023804;28;20480;-69
2021/12/15 00:16:45;;;;;;;33.08;16.58;;;5.90;99.90;;;;;;5023430;28;20130;-69
2021/12/15 00:19:12;;;;;;;32.65;16.35;;;5.90;99.90;;;;;;5012504;28;20041;-69
2021/12/15 00:21:40;;;;;;;35.42;16.17;;;5.90;99.90;;;;;;5021264;28;20060;-69
2021/12/15 00:24:08;;;;;;;30.50;15.27;;;5.90;99.90;;;;;;5025094;28;20050;-69
2021/12/15 00:26:37;;;;;;;33.20;15.48;;;5.80;99.90;;;;;;5028893;28;20418;-69
2021/12/15 00:29:06;;;;;;;29.55;15.07;;;5.80;99.90;;;;;;5024010;28;20045;-69
2021/12/15 00:31:35;;;;;;;34.25;15.50;;;5.80;99.90;;;;;;5028089;28;20068;-69
2021/12/15 00:34:04;;;;;;;31.05;14.55;;;5.80;99.90;;;;;;5022965;28;20042;-69
2021/12/15 00:36:32;;;;;;;31.65;14.35;;;5.80;99.90;;;;;;5029405;28;20420;-69
2021/12/15 00:39:01;;;;;;;29.52;14.70;;;5.80;99.90;;;;;;5023023;28;20025;-69
2021/12/15 00:41:28;;;;;;;30.98;15.60;;;5.80;99.90;;;;;;5027541;28;20073;-69
2021/12/15 00:43:56;;;;;;;31.40;14.60;;;5.80;99.90;;;;;;5028933;28;20591;-69
2021/12/15 00:46:25;;;;;;;32.17;14.73;;;5.80;99.90;;;;;;5029626;28;20041;-69
2021/12/15 00:48:53;;;;;;;31.42;14.82;;;5.80;99.90;;;;;;5022754;28;20046;-69
2021/12/15 00:51:21;;;;;;;31.90;13.90;;;5.80;99.90;;;;;;5029012;28;20112;-69
2021/12/15 00:53:48;;;;;;;29.58;14.48;;;5.80;99.90;;;;;;5028349;28;20060;-69
2021/12/15 00:56:16;;;;;;;34.63;15.63;;;5.80;99.90;;;;;;5018518;28;20564;-69
2021/12/15 00:58:44;;;;;;;29.75;14.55;;;5.80;99.90;;;;;;5025904;28;20045;-69
2021/12/15 01:01:12;;;;;;;27.25;14.40;;;5.70;99.90;;;;;;5027455;28;20041;-69
2021/12/15 01:03:39;;;;;;;33.63;15.23;;;5.80;99.90;;;;;;5028355;28;20041;-68
2021/12/15 01:06:10;;;;;;;31.80;16.40;;;5.70;99.90;;;;;;5020550;28;20060;-69
2021/12/15 01:08:42;;;;;;;34.75;16.98;;;5.80;99.90;;;;;;5026867;28;20045;-68
2021/12/15 01:22:17;;;;;;;28.70;14.07;;;5.90;99.90;;;;;;5026858;28;20047;-69
2021/12/15 01:24:44;;;;;;;33.50;15.63;;;5.90;99.90;;;;;;5031653;28;20412;-69
2021/12/15 01:27:11;;;;;;;29.15;14.02;;;5.80;99.90;;;;;;5032241;28;20052;-69
2021/12/15 01:29:41;;;;;;;30.45;15.63;;;5.80;99.90;;;;;;5029327;28;20042;-68
2021/12/15 01:32:08;;;;;;;30.27;13.57;;;5.80;99.90;;;;;;5024971;28;20045;-70
2021/12/15 01:34:36;;;;;;;36.40;15.60;;;5.90;99.90;;;;;;5026899;28;20053;-69
2021/12/15 01:37:04;;;;;;;28.92;14.57;;;5.90;99.90;;;;;;5021725;28;20466;-70
2021/12/15 01:39:32;;;;;;;33.97;16.58;;;5.90;99.90;;;;;;5029476;28;20495;-69
2021/12/15 01:42:00;;;;;;;39.30;17.60;;;5.90;99.90;;;;;;5036292;28;20041;-69
2021/12/15 01:47:00;;;;;;;35.67;16.67;;;5.90;99.90;;;;;;5029679;28;20029;-68
2021/12/15 01:49:33;;;;;;;38.80;16.48;;;5.80;99.90;;;;;;5019925;28;20057;-69
2021/12/15 01:52:11;;;;;;;35.15;15.55;;;5.90;99.90;;;;;;5031307;28;20492;-69
2021/12/15 01:54:42;;;;;;;36.00;16.02;;;5.80;99.90;;;;;;5032211;28;20156;-69
2021/12/15 01:57:12;;;;;;;36.88;16.88;;;5.90;99.90;;;;;;5025951;28;20065;-68
2021/12/15 01:59:40;;;;;;;36.10;16.15;;;5.90;99.90;;;;;;5030255;28;20134;-69
2021/12/15 02:02:08;;;;;;;42.47;18.00;;;5.90;99.90;;;;;;5018365;28;20038;-69
2021/12/15 02:04:36;;;;;;;45.83;18.42;;;5.90;99.90;;;;;;5024601;28;20061;-69
2021/12/15 02:07:05;;;;;;;47.67;18.85;;;5.90;99.90;;;;;;5029968;28;20061;-69
2021/12/15 02:12:08;;;;;;;41.30;17.13;;;5.90;99.90;;;;;;5035501;28;20049;-69
2021/12/15 02:14:35;;;;;;;33.83;16.05;;;5.90;99.90;;;;;;5031433;28;20049;-69
2021/12/15 02:17:03;;;;;;;37.85;16.77;;;5.90;99.90;;;;;;5029293;28;20068;-69
2021/12/15 02:19:30;;;;;;;45.00;17.77;;;5.90;99.90;;;;;;5030146;28;20045;-69
2021/12/15 02:21:59;;;;;;;38.45;16.58;;;5.90;99.90;;;;;;5029275;28;20511;-69
2021/12/15 02:24:28;;;;;;;38.83;17.55;;;6.00;99.90;;;;;;5030179;28;20041;-69
2021/12/15 02:26:59;;;;;;;36.90;16.17;;;5.90;99.90;;;;;;5028781;28;20061;-69
2021/12/15 02:29:32;;;;;;;41.05;17.80;;;6.00;99.90;;;;;;5029861;28;20444;-70
2021/12/15 02:32:14;;;;;;;44.00;18.40;;;6.00;99.90;;;;;;5031733;28;20053;-69
2021/12/15 02:37:02;;;;;;;;;;;6.00;99.90;;;;;;5029863;28;20041;-69
2021/12/15 02:37:42;;;;;;;42.20;17.52;;;6.00;99.90;;;;;;5026054;28;19925;-69
2021/12/15 02:40:15;;;;;;;46.55;19.27;;;6.00;99.90;;;;;;5029946;28;20041;-69
2021/12/15 02:42:47;;;;;;;47.95;20.02;;;6.00;99.90;;;;;;5026563;28;20047;-69
2021/12/15 02:45:22;;;;;;;40.50;17.50;;;5.90;99.90;;;;;;5029779;28;20089;-69
2021/12/15 02:47:49;;;;;;;52.83;19.60;;;6.00;99.90;;;;;;5027056;28;20053;-68
2021/12/15 02:50:21;;;;;;;55.63;21.13;;;6.00;99.90;;;;;;5018153;28;20041;-69
2021/12/15 02:52:50;;;;;;;62.53;22.40;;;5.90;99.90;;;;;;5030819;28;20053;-69
2021/12/15 02:55:18;;;;;;;59.70;22.88;;;5.90;99.90;;;;;;5027848;28;20057;-69
2021/12/15 02:57:47;;;;;;;59.22;24.58;;;6.00;99.90;;;;;;5021287;28;20049;-69
2021/12/15 03:00:19;;;;;;;63.83;22.90;;;5.90;99.90;;;;;;5020286;28;20048;-69
2021/12/15 03:06:02;;;;;;;64.38;22.95;;;5.90;99.90;;;;;;5009164;28;19925;-69
2021/12/15 03:08:46;;;;;;;73.72;25.73;;;5.90;99.90;;;;;;5021526;28;20049;-69
2021/12/15 03:16:46;;;;;;;82.30;26.15;;;5.90;99.90;;;;;;5028540;28;20409;-69
2021/12/15 03:19:13;;;;;;;67.00;25.38;;;5.90;99.90;;;;;;5028731;28;20656;-69
2021/12/15 03:21:41;;;;;;;62.67;24.08;;;5.90;99.90;;;;;;5028863;28;20042;-69
2021/12/15 03:24:18;;;;;;;68.82;25.95;;;5.90;99.90;;;;;;5023012;28;20042;-68
2021/12/15 03:26:56;;;;;;;85.30;30.67;;;5.90;99.90;;;;;;5035249;28;20045;-69
2021/12/15 03:37:56;;;;;;;70.82;24.63;;;5.90;99.90;;;;;;5046892;28;20049;-68
2021/12/15 03:40:26;;;;;;;64.05;25.15;;;6.00;99.90;;;;;;5020281;28;20044;-69
2021/12/15 03:43:05;;;;;;;69.43;24.88;;;6.00;99.90;;;;;;5036380;28;20069;-69
2021/12/15 03:45:43;;;;;;;65.38;24.95;;;6.00;99.90;;;;;;5040620;28;20045;-68
2021/12/15 03:48:15;;;;;;;65.18;25.17;;;5.90;99.90;;;;;;5029053;28;20048;-69
2021/12/15 03:50:44;;;;;;;61.50;22.33;;;5.90;99.90;;;;;;5046505;28;20049;-69
2021/12/15 03:53:12;;;;;;;65.65;24.45;;;5.90;99.90;;;;;;5046653;28;20068;-69
2021/12/15 03:55:42;;;;;;;62.92;22.92;;;5.90;99.90;;;;;;5056531;28;20053;-69
2021/12/15 03:58:12;;;;;;;65.10;23.75;;;5.90;99.90;;;;;;5033152;28;20294;-69
2021/12/15 04:00:45;;;;;;;63.30;22.85;;;5.90;99.90;;;;;;5057442;28;20447;-69
2021/12/15 04:03:23;;;;;;;71.43;25.73;;;5.90;99.90;;;;;;5046987;28;20135;-69
2021/12/15 04:05:51;;;;;;;62.63;23.95;;;5.90;99.90;;;;;;5046853;28;20051;-69
2021/12/15 04:08:19;;;;;;;61.83;23.20;;;5.90;99.90;;;;;;5026455;28;20072;-69
2021/12/15 04:10:47;;;;;;;69.07;23.98;;;5.90;99.90;;;;;;5026849;28;20041;-69
2021/12/15 04:13:15;;;;;;;68.20;24.55;;;5.90;99.90;;;;;;5019267;28;20064;-69
2021/12/15 04:15:47;;;;;;;67.68;23.90;;;5.90;99.90;;;;;;5022934;28;20095;-68
2021/12/15 04:18:14;;;;;;;74.45;27.25;;;6.00;99.90;;;;;;5009733;28;20515;-69
2021/12/15 04:20:42;;;;;;;66.65;25.40;;;5.90;99.90;;;;;;5017251;28;20063;-69
2021/12/15 04:23:11;;;;;;;64.68;25.00;;;5.90;99.90;;;;;;5034132;28;20033;-69
2021/12/15 04:25:40;;;;;;;68.82;22.98;;;6.00;99.90;;;;;;5014524;28;20089;-68
2021/12/15 04:28:15;;;;;;;59.13;23.05;;;5.90;99.90;;;;;;5035432;28;20048;-69
2021/12/15 04:30:48;;;;;;;60.92;24.10;;;6.00;99.90;;;;;;5008638;28;20042;-69
2021/12/15 04:33:30;;;;;;;58.92;21.67;;;5.90;99.90;;;;;;5020578;28;20764;-69
2021/12/15 04:36:01;;;;;;;62.92;24.00;;;6.00;99.90;;;;;;5023498;28;20066;-69
2021/12/15 04:38:30;;;;;;;56.50;23.13;;;6.00;99.90;;;;;;5022466;28;20056;-69
2021/12/15 04:41:00;;;;;;;63.78;23.35;;;6.00;99.90;;;;;;5023705;28;20512;-69
2021/12/15 04:43:33;;;;;;;53.05;21.45;;;6.00;99.90;;;;;;5017816;28;20050;-70
2021/12/15 04:46:03;;;;;;;52.10;19.85;;;6.00;99.90;;;;;;5017771;28;20084;-69
2021/12/15 04:48:30;;;;;;;57.00;21.40;;;6.00;99.90;;;;;;5023697;28;20546;-69
2021/12/15 04:50:58;;;;;;;51.30;21.35;;;6.00;99.90;;;;;;5027287;28;20492;-69
2021/12/15 04:53:25;;;;;;;55.60;21.45;;;6.00;99.90;;;;;;5031476;28;20106;-69
2021/12/15 04:55:52;;;;;;;52.45;20.45;;;6.00;99.90;;;;;;5028404;28;20041;-68
2021/12/15 04:58:20;;;;;;;50.75;22.70;;;6.00;99.90;;;;;;5029629;28;20057;-69
2021/12/15 05:00:53;;;;;;;52.03;21.30;;;6.00;99.90;;;;;;5008555;28;20042;-69
2021/12/15 05:03:21;;;;;;;59.88;24.60;;;6.00;99.90;;;;;;5008444;28;20374;-69
2021/12/15 05:05:50;;;;;;;58.45;23.63;;;6.00;99.90;;;;;;5021295;28;20037;-70
2021/12/15 05:08:19;;;;;;;51.47;20.70;;;6.10;99.90;;;;;;5027477;28;20045;-69
2021/12/15 05:10:47;;;;;;;52.72;22.27;;;6.10;99.90;;;;;;5026489;28;20049;-69
2021/12/15 05:13:15;;;;;;;56.42;22.40;;;6.10;99.90;;;;;;5017918;28;20500;-69
2021/12/15 05:15:43;;;;;;;57.42;23.63;;;6.00;99.90;;;;;;5012724;28;20052;-68
2021/12/15 05:18:10;;;;;;;52.63;20.98;;;6.10;99.90;;;;;;5020072;28;20046;-69
2021/12/15 05:20:39;;;;;;;50.55;20.45;;;6.10;99.90;;;;;;5029104;28;20053;-71
2021/12/15 05:23:08;;;;;;;46.95;19.52;;;6.10;99.90;;;;;;5022916;28;20481;-69
2021/12/15 05:25:35;;;;;;;48.58;20.58;;;6.10;99.90;;;;;;5028417;28;20056;-68
2021/12/15 05:28:03;;;;;;;44.10;20.95;;;6.10;99.90;;;;;;5023365;28;20040;-69
2021/12/15 05:30:30;;;;;;;49.83;20.58;;;6.10;99.90;;;;;;5024282;28;20488;-69
2021/12/15 05:32:58;;;;;;;49.67;20.58;;;6.10;99.90;;;;;;5027000;28;20045;-69
2021/12/15 05:35:26;;;;;;;50.45;21.98;;;6.10;99.90;;;;;;5027788;28;20061;-69
2021/12/15 05:37:56;;;;;;;52.65;21.73;;;6.10;99.90;;;;;;5026630;28;20407;-68
2021/12/15 05:40:26;;;;;;;50.40;22.98;;;6.10;99.90;;;;;;5022037;28;20049;-70
2021/12/15 05:42:56;;;;;;;51.20;22.90;;;6.10;99.90;;;;;;5029763;28;20045;-69
2021/12/15 05:45:26;;;;;;;50.35;22.08;;;6.10;99.90;;;;;;5018103;28;20038;-69
2021/12/15 05:47:55;;;;;;;48.42;20.33;;;6.20;99.90;;;;;;5017545;28;20037;-69
2021/12/15 05:50:25;;;;;;;42.28;19.85;;;6.20;99.90;;;;;;5022794;28;20596;-69
2021/12/15 05:52:52;;;;;;;58.33;23.90;;;6.20;99.90;;;;;;5024958;28;20237;-69
2021/12/15 05:55:20;;;;;;;58.15;22.92;;;6.20;99.90;;;;;;5016405;28;20437;-68
2021/12/15 05:57:48;;;;;;;52.47;21.38;;;6.10;99.90;;;;;;5021968;28;20444;-69
2021/12/15 06:00:25;;;;;;;53.72;22.60;;;6.10;99.90;;;;;;5027003;28;20049;-68
2021/12/15 06:02:54;;;;;;;53.25;21.90;;;6.10;99.90;;;;;;5029744;28;20045;-68
2021/12/15 06:05:23;;;;;;;81.28;36.33;;;6.20;99.90;;;;;;5030237;28;20052;-68
2021/12/15 06:07:50;;;;;;;83.15;36.50;;;6.20;99.90;;;;;;5031476;28;20056;-68
2021/12/15 06:10:23;;;;;;;62.72;27.70;;;6.20;99.90;;;;;;5031745;28;20065;-68
2021/12/15 06:12:51;;;;;;;58.50;24.25;;;6.20;99.90;;;;;;5031597;28;20050;-68
2021/12/15 06:15:22;;;;;;;61.55;24.05;;;6.20;99.90;;;;;;5030090;28;20498;-68
2021/12/15 06:17:57;;;;;;;57.88;21.55;;;6.20;99.90;;;;;;5031421;28;20076;-68
2021/12/15 06:20:25;;;;;;;49.95;20.58;;;6.20;99.90;;;;;;5031374;28;20083;-68
2021/12/15 06:22:54;;;;;;;57.05;22.20;;;6.20;99.90;;;;;;5025114;28;20068;-68
2021/12/15 06:25:22;;;;;;;57.83;22.95;;;6.20;99.90;;;;;;5031484;28;20443;-68
2021/12/15 06:27:50;;;;;;;55.88;21.33;;;6.20;99.90;;;;;;5031188;28;20041;-68
2021/12/15 06:30:18;;;;;;;56.38;22.00;;;6.20;99.90;;;;;;5031141;28;20061;-68
2021/12/15 06:32:45;;;;;;;63.75;24.00;;;6.20;99.90;;;;;;5029652;28;20065;-68
2021/12/15 06:35:12;;;;;;;66.05;25.85;;;6.20;99.90;;;;;;5030309;28;20460;-68
2021/12/15 06:37:40;;;;;;;62.05;24.52;;;6.20;99.90;;;;;;5030341;28;20801;-69
2021/12/15 06:40:08;;;;;;;58.40;21.17;;;6.20;99.90;;;;;;5026818;28;20056;-69
2021/12/15 06:42:37;;;;;;;58.28;21.85;;;6.20;99.90;;;;;;5028887;28;20049;-69
2021/12/15 06:45:10;;;;;;;65.88;23.20;;;6.20;99.90;;;;;;5028822;28;20431;-69
2021/12/15 06:58:40;;;;;;;53.65;21.13;;;6.20;99.90;;;;;;5032154;28;20144;-68
2021/12/15 07:01:08;;;;;;;52.13;20.83;;;6.20;99.90;;;;;;5019046;28;20756;-68
2021/12/15 07:03:36;;;;;;;54.85;22.30;;;6.20;99.90;;;;;;5029260;28;20045;-69
2021/12/15 07:06:03;;;;;;;50.95;21.73;;;6.30;99.90;;;;;;5030667;28;20099;-69
2021/12/15 07:08:31;;;;;;;49.95;20.58;;;6.30;99.90;;;;;;5020046;28;20072;-69
2021/12/15 07:11:01;;;;;;;58.40;22.35;;;6.30;99.90;;;;;;5036249;28;20045;-68
2021/12/15 07:13:28;;;;;;;56.05;21.40;;;6.30;99.90;;;;;;5020656;28;20056;-69
2021/12/15 07:16:06;;;;;;;51.50;22.50;;;6.30;99.90;;;;;;5028428;28;20045;-69
2021/12/15 07:18:41;;;;;;;61.95;25.90;;;6.30;99.90;;;;;;5022490;28;20049;-68
2021/12/15 07:21:16;;;;;;;57.22;26.10;;;6.30;99.90;;;;;;5019986;28;20045;-69
2021/12/15 07:23:44;;;;;;;56.35;21.70;;;6.30;99.90;;;;;;5028410;28;20045;-69
2021/12/15 07:26:12;;;;;;;54.60;22.42;;;6.30;99.90;;;;;;5029109;28;20148;-69
2021/12/15 07:28:40;;;;;;;53.08;21.45;;;6.30;99.90;;;;;;5021322;28;20123;-69
2021/12/15 07:31:10;;;;;;;53.42;22.58;;;6.40;99.90;;;;;;5029611;28;20420;-69
2021/12/15 07:33:37;;;;;;;53.33;21.88;;;6.40;99.90;;;;;;5029795;28;20500;-69
2021/12/15 07:36:05;;;;;;;56.88;21.70;;;6.40;99.90;;;;;;5030976;28;20038;-69
2021/12/15 07:38:34;;;;;;;50.70;20.48;;;6.40;99.90;;;;;;5029605;28;20052;-69
2021/12/15 07:41:03;;;;;;;52.75;20.77;;;6.40;99.90;;;;;;5026760;28;20044;-69
2021/12/15 07:43:31;;;;;;;53.55;19.10;;;6.40;99.90;;;;;;5029140;28;20499;-69
2021/12/15 07:46:01;;;;;;;44.83;18.27;;;6.50;99.90;;;;;;5026226;28;20546;-69
2021/12/15 07:48:36;;;;;;;49.78;20.17;;;6.50;99.90;;;;;;5016419;28;20060;-69
2021/12/15 07:51:06;;;;;;;47.78;21.23;;;6.50;99.90;;;;;;5024591;28;20045;-69
2021/12/15 07:53:34;;;;;;;46.42;19.80;;;6.50;99.90;;;;;;5028482;28;20049;-68
2021/12/15 07:56:01;;;;;;;57.40;20.27;;;6.50;99.90;;;;;;5023665;28;20045;-68
2021/12/15 07:58:30;;;;;;;52.97;21.10;;;6.50;99.90;;;;;;5024588;28;20088;-68
2021/12/15 08:01:01;;;;;;;55.25;25.05;;;6.50;99.90;;;;;;5021787;28;20046;-68
2021/12/15 08:03:30;;;;;;;59.40;25.10;;;6.60;99.90;;;;;;5028612;28;20645;-68
2021/12/15 08:05:58;;;;;;;61.05;23.25;;;6.60;99.90;;;;;;5019271;28;20042;-68
2021/12/15 08:08:26;;;;;;;65.15;22.30;;;6.60;99.90;;;;;;5024934;28;20496;-68
2021/12/15 08:10:56;;;;;;;47.08;20.33;;;6.60;99.90;;;;;;5027666;28;20079;-68
2021/12/15 08:13:26;;;;;;;44.30;18.90;;;6.60;99.90;;;;;;5016135;28;20107;-68
2021/12/15 08:15:54;;;;;;;45.40;19.13;;;6.60;99.90;;;;;;5025965;28;20038;-68
2021/12/15 08:18:21;;;;;;;49.05;18.55;;;6.70;99.90;;;;;;5027751;28;20053;-67
2021/12/15 08:20:50;;;;;;;51.70;19.92;;;6.70;99.90;;;;;;5026793;28;20042;-68
2021/12/15 08:23:18;;;;;;;40.20;17.67;;;6.70;99.90;;;;;;5027511;28;20041;-68
2021/12/15 08:25:46;;;;;;;42.90;20.33;;;6.70;99.90;;;;;;5016747;28;20048;-67
2021/12/15 08:28:14;;;;;;;40.30;19.08;;;6.70;99.90;;;;;;5021755;28;20050;-68
2021/12/15 08:30:44;;;;;;;38.65;17.30;;;6.80;99.90;;;;;;5015908;28;20038;-68
2021/12/15 08:33:16;;;;;;;41.25;17.98;;;6.80;99.90;;;;;;5023879;28;20050;-68
2021/12/15 08:36:06;;;;;;;42.90;18.27;;;6.80;99.90;;;;;;5019375;28;20049;-68
2021/12/15 08:38:37;;;;;;;43.70;18.90;;;6.90;99.90;;;;;;5014844;28;20056;-68
2021/12/15 08:41:07;;;;;;;46.85;18.92;;;6.90;99.90;;;;;;5020744;28;20040;-68
2021/12/15 08:43:36;;;;;;;50.28;20.15;;;6.90;99.90;;;;;;5023810;28;20048;-68
2021/12/15 08:46:09;;;;;;;48.85;21.58;;;6.90;99.90;;;;;;5018286;28;20050;-69
2021/12/15 08:48:38;;;;;;;43.35;19.63;;;6.90;99.90;;;;;;5026754;28;20038;-68
2021/12/15 08:51:08;;;;;;;46.65;20.77;;;6.90;99.90;;;;;;5013268;28;20045;-68
2021/12/15 08:53:36;;;;;;;53.90;20.98;;;7.00;99.90;;;;;;5024423;28;20061;-68
2021/12/15 08:56:04;;;;;;;46.80;19.17;;;6.90;99.90;;;;;;5028140;28;20049;-69
2021/12/15 08:58:31;;;;;;;53.03;21.50;;;6.90;99.90;;;;;;5028758;28;20062;-69
2021/12/15 09:00:59;;;;;;;53.30;21.25;;;6.90;99.90;;;;;;5024594;28;20045;-69
2021/12/15 09:03:28;;;;;;;49.30;21.40;;;6.90;99.90;;;;;;5022504;28;20048;-69
2021/12/15 09:05:58;;;;;;;52.35;21.50;;;6.90;99.90;;;;;;5020194;28;20064;-69
2021/12/15 09:08:29;;;;;;;51.03;20.23;;;7.00;99.90;;;;;;5016538;28;20056;-68
2021/12/15 09:11:01;;;;;;;48.95;20.05;;;7.00;99.90;;;;;;5023545;28;20107;-68
2021/12/15 09:13:31;;;;;;;52.28;20.17;;;7.10;99.90;;;;;;5023802;28;20053;-68
2021/12/15 09:16:02;;;;;;;47.03;20.38;;;7.20;99.90;;;;;;5014959;28;20048;-68
2021/12/15 09:18:29;;;;;;;45.58;18.95;;;7.30;99.90;;;;;;5018241;28;20137;-68
2021/12/15 09:20:57;;;;;;;42.55;18.85;;;7.30;99.90;;;;;;5020556;28;20041;-68
2021/12/15 09:23:24;;;;;;;41.28;18.83;;;7.30;99.90;;;;;;5024099;28;20074;-69
2021/12/15 09:25:52;;;;;;;46.90;20.15;;;7.30;99.90;;;;;;5027276;28;20045;-69
2021/12/15 09:28:19;;;;;;;43.53;19.92;;;7.30;99.90;;;;;;5028365;28;20060;-68
2021/12/15 09:30:48;;;;;;;48.22;20.38;;;7.30;99.90;;;;;;5027418;28;20065;-69
2021/12/15 09:33:26;;;;;;;41.72;18.73;;;7.40;99.90;;;;;;5019545;28;20037;-68
2021/12/15 09:35:53;;;;;;;52.15;20.88;;;7.40;99.90;;;;;;5027640;28;20079;-68
2021/12/15 09:38:22;;;;;;;50.92;23.45;;;7.50;99.90;;;;;;5030321;28;20855;-69
2021/12/15 09:40:56;;;;;;;46.60;20.02;;;7.50;99.90;;;;;;5029633;28;20038;-69
2021/12/15 09:43:28;;;;;;;46.90;20.67;;;7.50;99.90;;;;;;5027727;28;20376;-68
2021/12/15 09:46:05;;;;;;;48.50;20.75;;;7.50;99.90;;;;;;5028270;28;20120;-68
2021/12/15 09:57:16;;;;;;;49.90;20.77;;;7.30;99.90;;;;;;5012104;28;20057;-68
2021/12/15 10:02:54;;;;;;;48.47;22.27;;;7.30;99.90;;;;;;5030067;28;20303;-68
2021/12/15 10:11:14;;;;;;;45.22;20.02;;;7.40;99.90;;;;;;5019500;28;20284;-69
2021/12/15 10:19:38;;;;;;;45.13;19.88;;;7.50;99.90;;;;;;5032797;28;20049;-68
2021/12/15 10:22:17;;;;;;;45.30;18.98;;;7.60;99.90;;;;;;5028854;28;20034;-69
2021/12/15 10:24:54;;;;;;;42.40;18.92;;;7.60;99.90;;;;;;5031404;28;20389;-69
2021/12/15 10:27:47;;;;;;;38.97;17.63;;;7.70;99.90;;;;;;5028447;28;20049;-69
2021/12/15 10:30:27;;;;;;;38.53;17.75;;;7.70;99.90;;;;;;5027638;28;20050;-69
2021/12/15 10:33:02;;;;;;;42.88;18.02;;;7.70;99.90;;;;;;5016229;28;20041;-69
2021/12/15 10:35:37;;;;;;;37.60;17.27;;;7.90;99.90;;;;;;5017868;28;20056;-69
2021/12/15 10:38:20;;;;;;;41.13;18.42;;;7.90;99.90;;;;;;5028501;28;20048;-69
2021/12/15 10:40:52;;;;;;;42.53;19.88;;;7.90;99.90;;;;;;5023913;28;20053;-69
2021/12/15 10:43:23;;;;;;;47.80;20.63;;;8.00;99.90;;;;;;5029715;28;20045;-69
2021/12/15 10:45:54;;;;;;;46.58;19.83;;;8.10;99.90;;;;;;5020654;28;20041;-69
2021/12/15 10:48:46;;;;;;;40.92;19.58;;;8.20;99.90;;;;;;5029922;28;20053;-69
2021/12/15 10:51:36;;;;;;;37.88;17.80;;;8.10;99.90;;;;;;5028313;28;20089;-69
2021/12/15 10:54:09;;;;;;;44.55;19.42;;;8.00;99.90;;;;;;5030936;28;20042;-69
2021/12/15 10:56:40;;;;;;;37.70;18.20;;;8.00;99.90;;;;;;5013995;28;20046;-69
2021/12/15 10:59:11;;;;;;;41.60;19.87;;;8.00;99.90;;;;;;5028998;28;20535;-69
2021/12/15 11:01:47;;;;;;;44.72;19.38;;;8.00;99.90;;;;;;5017873;28;20125;-69
2021/12/15 11:04:20;;;;;;;41.00;18.88;;;8.10;99.90;;;;;;5025739;28;20432;-69
2021/12/15 11:07:05;;;;;;;44.78;20.17;;;8.10;99.90;;;;;;5012219;28;20046;-69
2021/12/15 11:09:39;;;;;;;39.10;18.35;;;8.20;99.90;;;;;;5029371;28;20060;-69
2021/12/15 11:12:13;;;;;;;49.70;21.15;;;8.20;99.90;;;;;;5029573;28;20352;-69
2021/12/15 11:14:43;;;;;;;50.97;21.55;;;8.20;99.90;;;;;;5035594;28;20420;-70
2021/12/15 11:17:24;;;;;;;39.97;19.52;;;8.20;99.90;;;;;;5031691;28;20046;-69
2021/12/15 11:19:53;;;;;;;42.17;19.02;;;8.30;99.90;;;;;;5011823;28;20042;-69
2021/12/15 11:22:50;;;;;;;39.45;19.08;;;8.20;99.90;;;;;;5023254;28;20044;-69
2021/12/15 11:25:23;;;;;;;41.33;18.65;;;8.30;99.90;;;;;;5012387;28;20049;-69
2021/12/15 11:27:54;;;;;;;45.47;21.08;;;8.40;99.90;;;;;;5026157;28;20504;-69
2021/12/15 11:30:32;;;;;;;45.25;20.45;;;8.40;99.90;;;;;;5028831;28;20058;-69
2021/12/15 11:33:04;;;;;;;43.03;19.52;;;8.30;99.90;;;;;;5024874;28;20076;-69
2021/12/15 11:35:39;;;;;;;44.53;18.48;;;8.40;99.90;;;;;;5022994;28;20054;-69
2021/12/15 11:38:20;;;;;;;41.28;17.50;;;8.40;99.90;;;;;;5029018;28;20041;-69
2021/12/15 11:41:19;;;;;;;37.70;16.87;;;8.40;99.90;;;;;;5025933;28;20110;-69
2021/12/15 11:43:57;;;;;;;36.88;17.50;;;8.30;99.90;;;;;;5031890;28;20115;-69
2021/12/15 11:46:38;;;;;;;40.55;18.27;;;8.20;99.90;;;;;;5023280;28;20045;-69
2021/12/15 11:49:13;;;;;;;38.92;17.75;;;8.30;99.90;;;;;;5028979;28;20046;-69
2021/12/15 11:51:44;;;;;;;41.03;17.05;;;8.30;99.90;;;;;;5021216;28;20040;-69
2021/12/15 11:54:37;;;;;;;34.00;16.08;;;8.30;99.90;;;;;;5028056;28;20041;-69
2021/12/15 11:57:19;;;;;;;30.20;14.48;;;8.20;99.90;;;;;;5014765;28;20068;-69
2021/12/15 11:59:49;;;;;;;29.08;14.20;;;8.30;99.90;;;;;;5008379;28;20052;-69
2021/12/15 12:02:24;;;;;;;35.00;15.48;;;8.30;99.90;;;;;;5019322;28;20488;-69
2021/12/15 12:04:57;;;;;;;32.08;15.63;;;8.20;99.90;;;;;;5024695;28;20045;-69
2021/12/15 12:07:29;;;;;;;27.65;14.18;;;8.20;99.90;;;;;;5016401;28;20554;-68
2021/12/15 12:10:08;;;;;;;32.53;15.27;;;8.10;99.90;;;;;;5028930;28;20049;-68
2021/12/15 12:12:41;;;;;;;30.08;14.77;;;8.00;99.90;;;;;;5009577;28;20050;-68
2021/12/15 12:15:13;;;;;;;31.70;14.40;;;8.00;99.90;;;;;;5020563;28;20049;-69
2021/12/15 12:17:42;;;;;;;;;;;8.00;99.90;;;;;;5015075;28;20072;-69
2021/12/15 12:20:28;;;;;;;32.47;14.30;;;8.00;99.90;;;;;;5008658;28;20434;-69
2021/12/15 12:22:57;;;;;;;35.63;16.00;;;7.90;99.90;;;;;;5007949;28;20030;-69
2021/12/15 12:25:36;;;;;;;41.33;19.83;;;7.90;99.90;;;;;;5017084;28;20549;-69
2021/12/15 12:28:07;;;;;;;39.85;18.98;;;7.80;99.90;;;;;;5011408;28;20041;-69
2021/12/15 12:30:48;;;;;;;36.63;17.20;;;7.80;99.90;;;;;;5021835;28;20416;-70
2021/12/15 12:33:17;;;;;;;36.25;16.80;;;7.80;99.90;;;;;;5016310;28;20053;-69
2021/12/15 12:35:47;;;;;;;36.83;17.25;;;7.80;99.90;;;;;;5010894;28;20046;-69
2021/12/15 12:38:21;;;;;;;35.28;16.00;;;7.80;99.90;;;;;;5020563;28;20045;-69
2021/12/15 12:40:53;;;;;;;29.10;14.75;;;7.80;99.90;;;;;;5026774;28;20100;-69
2021/12/15 12:43:31;;;;;;;39.47;18.23;;;7.80;99.90;;;;;;5017474;28;20041;-69
2021/12/15 12:46:33;;;;;;;31.33;16.33;;;7.80;99.90;;;;;;5028026;28;20050;-69
2021/12/15 13:00:41;;;;;;;25.50;12.90;;;7.70;99.90;;;;;;5023209;28;20054;-69
2021/12/15 13:03:35;;;;;;;27.73;13.05;;;7.70;99.90;;;;;;5026393;28;20041;-69
2021/12/15 13:06:08;;;;;;;27.52;13.48;;;7.70;99.90;;;;;;5020950;28;20436;-69
2021/12/15 13:08:36;;;;;;;26.50;13.55;;;7.70;99.90;;;;;;5026253;28;20038;-69
2021/12/15 13:11:20;;;;;;;25.55;14.23;;;7.60;99.90;;;;;;5017879;28;20445;-70
2021/12/15 13:14:19;;;;;;;26.38;13.05;;;7.60;99.90;;;;;;5024656;28;20056;-69
2021/12/15 13:16:48;;;;;;;25.20;13.30;;;7.50;99.90;;;;;;5024003;28;20508;-69
2021/12/15 13:19:31;;;;;;;24.45;12.70;;;7.50;99.90;;;;;;5026965;28;20060;-69
2021/12/15 13:31:08;;;;;;;23.05;12.10;;;7.50;99.90;;;;;;5019528;28;20041;-68
2021/12/15 13:33:36;;;;;;;22.10;12.73;;;7.50;99.90;;;;;;5017163;28;20408;-68
2021/12/15 13:36:17;;;;;;;21.60;12.02;;;7.60;99.90;;;;;;5020862;28;20057;-69
2021/12/15 13:38:56;;;;;;;19.73;10.73;;;7.50;99.90;;;;;;5015637;28;20508;-69
2021/12/15 13:42:00;;;;;;;19.48;11.05;;;7.50;99.90;;;;;;5022553;28;20140;-69
2021/12/15 13:44:40;;;;;;;20.35;11.23;;;7.50;99.90;;;;;;5021483;28;20487;-68
2021/12/15 13:47:07;;;;;;;18.00;10.40;;;7.50;99.90;;;;;;5022822;28;20531;-69
2021/12/15 13:49:50;;;;;;;17.95;10.55;;;7.40;99.90;;;;;;5025384;28;20037;-68
2021/12/15 13:52:31;;;;;;;19.55;10.90;;;7.50;99.90;;;;;;5027654;28;20041;-69
2021/12/15 13:55:05;;;;;;;17.08;10.43;;;7.40;99.90;;;;;;5025697;28;20048;-69
2021/12/15 13:57:50;;;;;;;16.65;10.05;;;7.40;99.90;;;;;;5023620;28;20053;-69
2021/12/15 14:00:32;;;;;;;20.08;11.25;;;7.40;99.90;;;;;;5020739;28;20052;-69
2021/12/15 14:03:18;;;;;;;;;;;7.40;99.90;;;;;;5024912;28;20041;-69
2021/12/15 14:05:57;;;;;;;17.25;10.45;;;7.40;99.90;;;;;;5019736;28;19924;-70
2021/12/15 14:08:31;;;;;;;20.77;10.88;;;7.40;99.90;;;;;;5019866;28;20037;-69
2021/12/15 14:11:03;;;;;;;18.10;10.15;;;7.40;99.90;;;;;;5026759;28;20048;-69
2021/12/15 14:13:38;;;;;;;;;;;7.40;99.90;;;;;;5027961;28;20050;-69
2021/12/15 14:16:06;;;;;;;22.27;10.05;;;7.40;99.90;;;;;;5023950;28;20399;-69
2021/12/15 14:18:35;;;;;;;19.38;10.98;;;7.40;99.90;;;;;;5019410;28;20148;-70
2021/12/15 14:21:11;;;;;;;18.98;10.30;;;7.40;99.90;;;;;;5017097;28;20112;-69
2021/12/15 14:23:44;;;;;;;18.75;10.23;;;7.40;99.90;;;;;;5031040;28;20041;-69
2021/12/15 14:26:32;;;;;;;19.52;10.82;;;7.40;99.90;;;;;;5024890;28;20528;-69
2021/12/15 14:29:08;;;;;;;;;;;7.40;99.90;;;;;;5021975;28;20107;-69
2021/12/15 14:31:39;;;;;;;19.65;11.32;;;7.40;99.90;;;;;;5020027;28;19967;-69